Wrights, Illinois
Current Conditions -  °F | °C
As of 11:55 PM on Tuesday 21 Oct 2014 (Local Time) from KIJX Reporting Station
Clear Clear  
Wind Chill: 37°   Ceiling: Unl
Heat Index: 41°   Visibility: 10mi
Dew Point: 38°   Wind: 6mph
Humidity: 90%   Direction: 70°ENE
Pressure: 30.23"   Gusts: NA
Location:  39.38°N, 90.29°W
Report Text: KIJX 220455Z AUTO 07005KT 10SM CLR 05/04 A3023 RMK AO2 T00500035
Loading
Personal Weather Stations






























Interactive Weather Map
Tropical Storm Tracking
New forecast layout! Learn more

10-Day Weather Forecast

Advertisements
Track Severe Weather on mobile